Muscadine, Alabama
Current Conditions -  °F | °C
As of 8:53 AM on Wednesday 26 Nov 2014 (Local Time) from KANB Reporting Station
Clear Clear  
Wind Chill: 41°   Ceiling: Unl
Heat Index: 44°   Visibility: 10mi
Dew Point: 29°   Wind: 6mph
Humidity: 55%   Direction: 230°SW
Pressure: 30.18"   Gusts: NA
Location:  33.73°N, 85.39°W
Report Text: KANB 261453Z AUTO 23005KT 10SM CLR 07/M02 A3018 RMK AO2 SLP223 T00671017 51022
Loading
Personal Weather Stations






























Interactive Weather Map New forecast layout! Learn more

10-Day Weather Forecast

Advertisements
Track Severe Weather on mobile